aviador You're here:

K1YT Decoded Metar

in
Report Time2018-01-19 16:58:00
UTC Time2018-01-19 17:14:42
Flight Rules vfr VFR
WindCalm
Visibility9999 m
Phenomena:N/A
Clouds:N/A
Expected CloudBase > 400 ft AGL from Temp-Dew spread
CeilingNone
Temp-2°C
Dew Point-3°C (93% RH)
AAT-4.4°C
QNH1012 hPa
Raw Report
METAR K1YT 191658Z AUTO 00000KT 10SM CLR M02/M03 A2987 RMK AO2 SLPNO
T10181028 $=

Extra information for K1YT:More info

Social comments